createdAt,value
2019-01-25T00:08:51.046Z,32.43
2019-01-25T00:11:21.617Z,31.03
2019-01-25T00:13:53.938Z,28.90
2019-01-25T00:16:24.265Z,29.90
2019-01-25T00:18:54.653Z,31.80
2019-01-25T00:30:13.302Z,29.97
2019-01-25T00:35:28.067Z,30.03
2019-01-25T00:37:58.475Z,32.13
2019-01-25T00:40:28.803Z,31.00
2019-01-25T00:42:59.207Z,30.63
2019-01-25T00:45:29.516Z,33.50
2019-01-25T00:47:59.775Z,32.03
2019-01-25T00:50:30.347Z,31.53
2019-01-25T00:53:03.231Z,30.67
2019-01-25T00:55:33.727Z,30.77
2019-01-25T00:58:04.078Z,28.73
2019-01-25T01:00:53.359Z,29.90
2019-01-25T01:03:23.778Z,30.30
2019-01-25T01:06:05.733Z,30.30
2019-01-25T01:08:36.067Z,29.90
2019-01-25T01:11:06.324Z,28.77
2019-01-25T01:13:39.039Z,31.87
2019-01-25T01:18:51.493Z,28.33
2019-01-25T01:21:40.931Z,31.33
2019-01-25T01:24:11.222Z,29.40
2019-01-25T01:26:43.804Z,30.93
2019-01-25T01:31:56.689Z,31.03
2019-01-25T01:34:27.412Z,32.07
2019-01-25T01:36:57.918Z,31.53
2019-01-25T01:39:28.501Z,30.90
2019-01-25T01:41:58.746Z,30.43
2019-01-25T01:44:29.023Z,30.33
2019-01-25T01:47:01.575Z,29.97
2019-01-25T01:49:31.839Z,29.77
2019-01-25T01:52:02.335Z,29.63
2019-01-25T01:54:34.616Z,27.93
2019-01-25T01:57:04.862Z,30.17
2019-01-25T01:59:35.153Z,30.90
2019-01-25T02:05:36.464Z,29.47
2019-01-25T02:08:18.654Z,28.63
2019-01-25T02:10:48.905Z,28.93
2019-01-25T02:13:19.498Z,30.13
2019-01-25T02:18:36.262Z,29.90
2019-01-25T02:24:08.788Z,30.33
2019-01-25T02:26:39.072Z,26.90
2019-01-25T02:29:10.277Z,28.67
2019-01-25T02:34:44.461Z,29.73
2019-01-25T02:37:15.660Z,29.67
2019-01-25T02:43:05.369Z,30.40
2019-01-25T02:48:24.850Z,29.33
2019-01-25T02:50:55.241Z,29.97
2019-01-25T02:56:29.637Z,30.30
2019-01-25T03:04:34.377Z,27.47
2019-01-25T03:09:56.348Z,27.00
2019-01-25T03:12:26.615Z,27.87
2019-01-25T03:14:57.972Z,28.67
2019-01-25T03:23:25.583Z,30.40
2019-01-25T03:25:55.893Z,30.70
2019-01-25T03:31:32.507Z,29.80
2019-01-25T03:42:35.484Z,28.77
2019-01-25T03:48:13.064Z,28.93
2019-01-25T03:50:43.306Z,28.73
2019-01-25T03:53:13.588Z,29.27
2019-01-25T03:55:43.937Z,30.07
2019-01-25T03:58:14.275Z,30.53
2019-01-25T04:00:44.549Z,33.03
2019-01-25T04:03:35.271Z,29.40
2019-01-25T04:06:06.169Z,30.13
2019-01-25T04:08:51.876Z,30.63
2019-01-25T04:11:25.197Z,29.90
2019-01-25T04:13:55.521Z,33.60
2019-01-25T04:16:26.094Z,32.10
2019-01-25T04:21:38.534Z,31.60
2019-01-25T04:24:08.927Z,30.33
2019-01-25T04:26:41.713Z,32.20
2019-01-25T04:29:12.050Z,32.40
2019-01-25T04:31:42.337Z,31.70
2019-01-25T04:34:13.190Z,31.47
2019-01-25T04:39:49.268Z,33.20
2019-01-25T04:42:19.538Z,34.80
2019-01-25T04:47:35.314Z,32.43
2019-01-25T04:53:12.126Z,31.30
2019-01-25T04:55:42.656Z,33.10
2019-01-25T04:58:33.659Z,34.13
2019-01-25T05:01:25.037Z,36.20
2019-01-25T05:03:55.463Z,32.47
2019-01-25T05:06:25.785Z,33.27
2019-01-25T05:08:56.295Z,34.30
2019-01-25T05:11:28.682Z,33.30
2019-01-25T05:13:59.090Z,34.47
2019-01-25T05:16:29.697Z,33.90
2019-01-25T05:19:18.915Z,31.63
2019-01-25T05:21:49.215Z,35.80
2019-01-25T05:24:22.461Z,34.97
2019-01-25T05:29:58.295Z,34.43
2019-01-25T05:41:28.173Z,33.00
2019-01-25T05:44:01.285Z,34.40
2019-01-25T05:46:45.802Z,35.47
2019-01-25T05:49:17.148Z,36.07
2019-01-25T05:51:47.468Z,36.17
2019-01-25T05:54:17.755Z,36.50
2019-01-25T05:56:48.251Z,38.70
2019-01-25T06:02:21.573Z,38.07
2019-01-25T06:10:47.565Z,37.27
2019-01-25T06:13:30.879Z,38.30
2019-01-25T06:16:01.357Z,35.70
2019-01-25T06:18:31.708Z,37.47
2019-01-25T06:21:02.168Z,37.90
2019-01-25T06:23:32.470Z,37.93
2019-01-25T06:26:02.984Z,37.57
2019-01-25T06:28:33.297Z,35.67
2019-01-25T06:31:29.144Z,38.97
2019-01-25T06:36:45.754Z,35.97
2019-01-25T06:39:16.097Z,38.33
2019-01-25T06:42:05.487Z,39.20
2019-01-25T06:44:36.017Z,37.73
2019-01-25T06:49:53.073Z,38.73
2019-01-25T06:55:18.075Z,39.63
2019-01-25T07:03:58.871Z,39.27
2019-01-25T07:06:29.623Z,39.63
2019-01-25T07:11:51.448Z,43.27
2019-01-25T07:17:42.685Z,40.33
2019-01-25T07:20:14.291Z,39.20
2019-01-25T07:22:44.622Z,40.90
2019-01-25T07:25:29.356Z,41.40
2019-01-25T07:27:59.695Z,41.93
2019-01-25T07:30:33.557Z,41.93
2019-01-25T07:33:04.037Z,39.80
2019-01-25T07:35:34.305Z,39.90
2019-01-25T07:38:04.681Z,41.50
2019-01-25T07:43:25.101Z,39.43
2019-01-25T07:51:34.535Z,42.47
2019-01-25T07:54:24.045Z,42.00
2019-01-25T07:56:54.818Z,41.20
2019-01-25T07:59:25.811Z,43.33
2019-01-25T08:02:14.334Z,41.10
2019-01-25T08:07:35.184Z,38.47
2019-01-25T08:13:06.871Z,37.83
2019-01-25T08:15:54.572Z,41.57
2019-01-25T08:18:36.959Z,40.17
2019-01-25T08:21:07.145Z,42.07
2019-01-25T08:29:33.212Z,39.40
2019-01-25T08:32:03.543Z,41.13
2019-01-25T08:34:34.685Z,40.10
2019-01-25T08:37:25.412Z,40.50
2019-01-25T08:39:57.370Z,39.80
2019-01-25T08:42:28.420Z,41.10
2019-01-25T08:44:59.810Z,40.83
2019-01-25T08:47:37.170Z,36.00
2019-01-25T08:50:11.091Z,37.50
2019-01-25T08:52:42.528Z,38.53
2019-01-25T08:55:14.656Z,37.37
2019-01-25T08:57:45.048Z,36.20
2019-01-25T09:00:17.875Z,36.97
2019-01-25T09:05:32.310Z,34.90
2019-01-25T09:08:02.663Z,35.43
2019-01-25T09:10:33.084Z,35.30
2019-01-25T09:13:03.510Z,33.13
2019-01-25T09:15:33.861Z,35.10
2019-01-25T09:21:01.746Z,34.17
2019-01-25T09:23:32.022Z,34.23
2019-01-25T09:26:02.300Z,37.30
2019-01-25T09:34:11.150Z,33.27
2019-01-25T09:36:47.986Z,34.40
2019-01-25T09:39:18.203Z,34.00
2019-01-25T09:41:50.550Z,28.13
2019-01-25T09:44:21.211Z,29.97
2019-01-25T09:46:51.470Z,34.77
2019-01-25T09:49:23.632Z,29.60
2019-01-25T09:52:08.013Z,30.53
2019-01-25T09:54:42.943Z,30.93
2019-01-25T09:57:13.585Z,31.03
2019-01-25T09:59:44.162Z,28.10
2019-01-25T10:02:14.457Z,27.73
2019-01-25T10:04:44.741Z,26.93
2019-01-25T10:07:15.868Z,27.43
2019-01-25T10:13:12.898Z,27.70
2019-01-25T10:15:43.351Z,27.87
2019-01-25T10:18:26.248Z,28.17
2019-01-25T10:23:47.519Z,30.57
2019-01-25T10:26:17.924Z,30.90
2019-01-25T10:28:48.177Z,25.17
2019-01-25T10:40:01.288Z,25.13
2019-01-25T10:42:31.597Z,28.20
2019-01-25T10:45:04.410Z,28.70
2019-01-25T10:47:39.088Z,30.60
2019-01-25T10:50:09.383Z,26.63
2019-01-25T10:52:39.723Z,27.10
2019-01-25T10:55:10.356Z,25.80
2019-01-25T10:57:43.117Z,27.33
2019-01-25T11:00:20.110Z,25.17
2019-01-25T11:03:13.071Z,27.70
2019-01-25T11:05:43.498Z,28.90
2019-01-25T11:08:33.008Z,25.87
2019-01-25T11:11:03.604Z,26.17
2019-01-25T11:13:53.264Z,26.57
2019-01-25T11:16:23.661Z,30.33
2019-01-25T11:18:54.086Z,29.70
2019-01-25T11:21:26.896Z,25.93
2019-01-25T11:23:58.547Z,29.57
2019-01-25T11:26:29.005Z,28.53
2019-01-25T11:31:47.544Z,25.30
2019-01-25T11:34:19.290Z,28.80
2019-01-25T11:36:51.082Z,30.37
2019-01-25T11:39:21.333Z,26.60
2019-01-25T11:41:53.313Z,27.00
2019-01-25T11:44:23.737Z,27.50
2019-01-25T11:46:54.033Z,27.83
2019-01-25T11:49:24.336Z,27.83
2019-01-25T11:52:13.918Z,28.47
2019-01-25T12:03:15.068Z,25.53
2019-01-25T12:08:33.309Z,22.27
2019-01-25T12:13:45.626Z,24.97
2019-01-25T12:16:22.917Z,25.43
2019-01-25T12:19:06.488Z,24.40
2019-01-25T12:21:48.973Z,23.90
2019-01-25T12:24:19.476Z,22.87
2019-01-25T12:26:49.933Z,20.97
2019-01-25T12:29:20.387Z,19.87
2019-01-25T12:34:40.746Z,23.10
2019-01-25T12:37:11.168Z,22.13
2019-01-25T12:39:42.596Z,23.77
2019-01-25T12:42:12.947Z,23.40
2019-01-25T12:44:43.461Z,25.47
2019-01-25T12:47:13.811Z,23.03
2019-01-25T12:49:44.603Z,21.83
2019-01-25T12:52:14.898Z,23.10
2019-01-25T12:54:45.379Z,23.53
2019-01-25T12:57:38.133Z,21.67
2019-01-25T13:03:12.099Z,22.90
2019-01-25T13:05:43.380Z,24.07
2019-01-25T13:13:55.339Z,23.60
2019-01-25T13:16:25.869Z,26.53
2019-01-25T13:18:56.229Z,24.07
2019-01-25T13:21:26.561Z,26.00
2019-01-25T13:29:26.390Z,21.97
2019-01-25T13:32:00.611Z,24.87
2019-01-25T13:44:15.099Z,22.70
2019-01-25T13:50:52.038Z,22.37
2019-01-25T14:15:23.890Z,25.83
2019-01-25T14:21:02.791Z,24.53
2019-01-25T14:23:35.622Z,25.93
2019-01-25T14:26:19.105Z,25.43
2019-01-25T14:28:49.460Z,26.20
2019-01-25T14:31:19.769Z,25.47
2019-01-25T14:36:45.739Z,24.83
2019-01-25T14:39:16.217Z,27.77
2019-01-25T14:45:07.339Z,27.93
2019-01-25T14:47:37.869Z,26.07
2019-01-25T14:50:11.857Z,26.27
2019-01-25T14:52:42.343Z,27.07
2019-01-25T14:55:12.700Z,27.57
2019-01-25T14:57:43.326Z,26.47
2019-01-25T15:00:16.189Z,27.50
2019-01-25T15:02:46.591Z,28.47
2019-01-25T15:13:26.762Z,30.03
2019-01-25T15:15:57.113Z,27.63
2019-01-25T15:18:27.394Z,27.30
2019-01-25T15:20:57.757Z,29.20
2019-01-25T15:23:28.443Z,31.00
2019-01-25T15:25:58.814Z,29.43
2019-01-25T15:28:29.439Z,31.53
2019-01-25T15:30:59.764Z,30.90
2019-01-25T15:33:30.540Z,29.40
2019-01-25T15:36:01.138Z,30.37
2019-01-25T15:38:31.470Z,28.97
2019-01-25T15:41:02.280Z,26.53
2019-01-25T15:43:32.956Z,27.97
2019-01-25T15:46:05.774Z,28.30
2019-01-25T15:48:36.420Z,29.47
2019-01-25T15:51:08.150Z,30.60
2019-01-25T15:53:38.759Z,31.37
2019-01-25T15:56:09.213Z,33.93
2019-01-25T15:58:39.720Z,33.03
2019-01-25T16:01:31.241Z,34.37
2019-01-25T16:07:04.145Z,34.33
2019-01-25T16:09:34.491Z,33.57
2019-01-25T16:12:04.906Z,36.43
2019-01-25T16:14:35.217Z,37.67
2019-01-25T16:17:05.964Z,34.50
2019-01-25T16:19:39.062Z,34.23
2019-01-25T16:22:09.408Z,36.27
2019-01-25T16:24:39.719Z,38.87
2019-01-25T16:27:10.499Z,35.47
2019-01-25T16:35:50.016Z,34.97
2019-01-25T16:41:01.911Z,36.07
2019-01-25T16:46:47.674Z,35.90
2019-01-25T16:49:20.143Z,35.90
2019-01-25T16:51:50.481Z,35.63
2019-01-25T16:54:20.777Z,38.47
2019-01-25T16:56:51.044Z,35.60
2019-01-25T17:02:04.865Z,35.53
2019-01-25T17:04:35.176Z,36.60
2019-01-25T17:07:05.981Z,37.67
2019-01-25T17:09:36.322Z,38.27
2019-01-25T17:12:06.712Z,37.77
2019-01-25T17:14:37.328Z,37.43
2019-01-25T17:17:07.699Z,37.27
2019-01-25T17:19:37.984Z,37.23
2019-01-25T17:22:08.381Z,36.50
2019-01-25T17:24:38.921Z,38.77
2019-01-25T17:32:55.234Z,36.60
2019-01-25T17:35:25.945Z,37.37
2019-01-25T17:40:46.400Z,36.07
2019-01-25T17:43:18.986Z,35.77
2019-01-25T17:45:49.358Z,36.37
2019-01-25T17:48:20.590Z,36.10
2019-01-25T17:50:57.427Z,37.57
2019-01-25T17:56:10.748Z,37.23
2019-01-25T17:58:41.609Z,37.83
2019-01-25T18:03:55.720Z,33.90
2019-01-25T18:06:28.765Z,33.83
2019-01-25T18:08:59.252Z,37.03
2019-01-25T18:14:12.687Z,35.43
2019-01-25T18:16:44.028Z,37.03
2019-01-25T18:19:14.895Z,34.80
2019-01-25T18:21:45.554Z,35.77
2019-01-25T18:24:16.286Z,35.07
2019-01-25T18:30:30.635Z,28.87
2019-01-25T18:33:00.863Z,31.87
2019-01-25T18:35:31.390Z,33.00
2019-01-25T18:38:09.221Z,30.93
2019-01-25T18:40:39.614Z,28.93
2019-01-25T18:43:11.201Z,29.30
2019-01-25T18:48:38.898Z,26.60
2019-01-25T18:57:43.988Z,20.77
2019-01-25T19:00:17.573Z,19.33
2019-01-25T19:03:07.372Z,18.70
2019-01-25T19:05:37.798Z,20.10
2019-01-25T19:08:08.663Z,19.50
2019-01-25T19:10:39.307Z,21.70
2019-01-25T19:15:52.872Z,20.17
2019-01-25T19:18:23.512Z,19.00
2019-01-25T19:20:55.978Z,18.03
2019-01-25T19:23:26.490Z,20.60
2019-01-25T19:25:57.033Z,21.13
2019-01-25T19:28:27.612Z,19.67
2019-01-25T19:30:58.282Z,20.83
2019-01-25T19:33:28.596Z,20.60
2019-01-25T19:35:58.950Z,18.90
2019-01-25T19:38:31.139Z,17.87
2019-01-25T19:43:44.727Z,19.00
2019-01-25T19:46:15.189Z,20.93
2019-01-25T19:57:34.009Z,18.87
2019-01-25T20:03:12.933Z,18.83
2019-01-25T20:05:43.354Z,20.47
2019-01-25T20:08:13.774Z,21.03
2019-01-25T20:11:10.548Z,20.23
2019-01-25T20:13:40.822Z,21.07
2019-01-25T20:16:13.355Z,21.80
2019-01-25T20:21:55.210Z,21.17
2019-01-25T20:24:27.509Z,22.70
2019-01-25T20:29:46.814Z,21.27
2019-01-25T20:32:30.577Z,20.90
2019-01-25T20:38:10.140Z,21.30
2019-01-25T20:40:40.524Z,22.00
2019-01-25T20:45:54.111Z,19.67
2019-01-25T20:48:24.822Z,22.03
2019-01-25T20:53:38.245Z,21.13
2019-01-25T20:56:11.285Z,22.53
2019-01-25T21:07:27.184Z,19.93
2019-01-25T21:09:57.708Z,22.17
2019-01-25T21:12:29.934Z,22.87
2019-01-25T21:15:00.285Z,19.70
2019-01-25T21:17:30.536Z,20.27
2019-01-25T21:20:01.267Z,21.30
2019-01-25T21:22:33.148Z,21.50
2019-01-25T21:25:15.106Z,20.83
2019-01-25T21:30:39.763Z,21.10
2019-01-25T21:33:26.718Z,21.23
2019-01-25T21:36:11.794Z,20.17
2019-01-25T21:38:42.080Z,20.90
2019-01-25T21:47:04.421Z,21.07
2019-01-25T21:49:48.413Z,18.93
2019-01-25T21:52:18.776Z,20.73
2019-01-25T21:58:12.364Z,21.07
2019-01-25T22:00:43.665Z,19.53
2019-01-25T22:03:16.217Z,20.93
2019-01-25T22:05:48.785Z,21.70
2019-01-25T22:08:19.100Z,20.00
2019-01-25T22:10:54.030Z,20.87
2019-01-25T22:13:24.508Z,18.90
2019-01-25T22:15:54.821Z,20.43
2019-01-25T22:18:25.462Z,21.53
2019-01-25T22:20:55.808Z,19.37
2019-01-25T22:23:32.396Z,21.27
2019-01-25T22:26:02.671Z,19.17
2019-01-25T22:28:33.570Z,20.30
2019-01-25T22:31:05.507Z,21.10
2019-01-25T22:33:35.957Z,19.43
2019-01-25T22:36:06.344Z,18.97
2019-01-25T22:41:37.920Z,19.20
2019-01-25T22:47:02.209Z,18.67
2019-01-25T22:49:32.575Z,19.47
2019-01-25T22:52:04.844Z,18.90
2019-01-25T22:54:35.236Z,19.93
2019-01-25T22:57:05.548Z,21.17
2019-01-25T22:59:36.298Z,20.17
2019-01-25T23:02:06.806Z,19.37
2019-01-25T23:05:16.124Z,19.43
2019-01-25T23:07:46.374Z,19.53
2019-01-25T23:10:18.996Z,18.80
2019-01-25T23:12:49.666Z,19.37
2019-01-25T23:18:27.181Z,18.50
2019-01-25T23:23:44.939Z,19.97
2019-01-25T23:29:00.314Z,19.03
2019-01-25T23:31:30.643Z,18.87
2019-01-25T23:34:22.860Z,17.77
2019-01-25T23:36:53.889Z,16.67
2019-01-25T23:42:11.114Z,18.43
2019-01-25T23:44:41.510Z,18.30
2019-01-25T23:49:54.557Z,18.23
2019-01-25T23:52:24.844Z,18.57
2019-01-25T23:54:55.109Z,17.07
2019-01-25T23:57:25.401Z,18.03
2019-01-25T23:59:55.642Z,17.47
